createdAt,value
2019-04-14T00:00:56.002Z,16.20
2019-04-14T00:02:31.529Z,15.40
2019-04-14T00:04:09.957Z,14.43
2019-04-14T00:05:47.471Z,15.40
2019-04-14T00:07:23.155Z,14.53
2019-04-14T00:08:58.713Z,14.30
2019-04-14T00:10:35.385Z,13.77
2019-04-14T00:12:12.138Z,15.00
2019-04-14T00:13:48.708Z,13.83
2019-04-14T00:15:31.233Z,13.63
2019-04-14T00:17:02.092Z,15.13
2019-04-14T00:18:38.236Z,14.23
2019-04-14T00:20:14.655Z,15.00
2019-04-14T00:21:50.179Z,12.47
2019-04-14T00:23:26.139Z,13.83
2019-04-14T00:25:02.363Z,14.33
2019-04-14T00:26:38.688Z,14.10
2019-04-14T00:28:14.186Z,13.70
2019-04-14T00:29:50.314Z,13.75
2019-04-14T00:31:26.262Z,14.10
2019-04-14T00:33:08.379Z,12.27
2019-04-14T00:34:46.382Z,12.30
2019-04-14T00:36:39.524Z,12.63
2019-04-14T00:38:23.781Z,12.87
2019-04-14T00:40:04.025Z,13.30
2019-04-14T00:41:47.629Z,14.90
2019-04-14T00:43:33.583Z,13.33
2019-04-14T00:45:34.919Z,12.20
2019-04-14T00:47:07.161Z,14.23
2019-04-14T00:48:43.059Z,12.20
2019-04-14T00:50:18.963Z,13.87
2019-04-14T00:51:54.995Z,13.57
2019-04-14T00:53:30.213Z,13.60
2019-04-14T00:55:07.570Z,15.90
2019-04-14T00:56:43.361Z,13.43
2019-04-14T00:58:19.192Z,12.97
2019-04-14T00:59:55.627Z,13.43
2019-04-14T01:01:30.921Z,11.67
2019-04-14T01:03:06.932Z,12.53
2019-04-14T01:04:42.697Z,12.80
2019-04-14T01:06:18.628Z,11.83
2019-04-14T01:07:54.416Z,13.70
2019-04-14T01:09:30.510Z,12.17
2019-04-14T01:11:06.006Z,11.50
2019-04-14T01:12:41.479Z,11.60
2019-04-14T01:14:17.028Z,12.77
2019-04-14T01:16:01.747Z,10.97
2019-04-14T01:17:30.819Z,12.07
2019-04-14T01:19:06.890Z,11.63
2019-04-14T01:20:42.875Z,12.13
2019-04-14T01:22:18.401Z,11.80
2019-04-14T01:23:54.525Z,13.00
2019-04-14T01:25:30.333Z,11.53
2019-04-14T01:27:06.034Z,14.10
2019-04-14T01:28:41.944Z,12.67
2019-04-14T01:30:17.617Z,11.77
2019-04-14T01:31:54.018Z,12.60
2019-04-14T01:33:29.435Z,11.85
2019-04-14T01:35:05.658Z,12.57
2019-04-14T01:36:41.299Z,12.87
2019-04-14T01:38:16.970Z,12.30
2019-04-14T01:39:54.490Z,12.63
2019-04-14T01:41:30.353Z,13.20
2019-04-14T01:43:25.650Z,12.82
2019-04-14T01:45:01.420Z,11.87
2019-04-14T01:46:37.419Z,13.77
2019-04-14T01:48:12.979Z,12.47
2019-04-14T01:49:48.711Z,13.70
2019-04-14T01:51:35.246Z,12.33
2019-04-14T01:53:12.592Z,12.82
2019-04-14T01:55:07.026Z,13.00
2019-04-14T01:56:54.532Z,12.00
2019-04-14T01:58:31.895Z,14.43
2019-04-14T02:00:12.005Z,11.80
2019-04-14T02:01:52.148Z,12.47
2019-04-14T02:03:28.099Z,14.27
2019-04-14T02:05:03.936Z,13.43
2019-04-14T02:06:39.889Z,11.87
2019-04-14T02:08:15.535Z,14.30
2019-04-14T02:09:51.150Z,12.13
2019-04-14T02:11:27.002Z,11.37
2019-04-14T02:13:02.846Z,12.60
2019-04-14T02:14:38.725Z,13.47
2019-04-14T02:16:23.679Z,11.97
2019-04-14T02:17:52.425Z,12.83
2019-04-14T02:19:28.450Z,14.80
2019-04-14T02:21:04.318Z,13.03
2019-04-14T02:22:39.879Z,13.33
2019-04-14T02:24:15.680Z,12.20
2019-04-14T02:25:51.493Z,13.30
2019-04-14T02:27:27.492Z,14.33
2019-04-14T02:29:03.636Z,13.20
2019-04-14T02:30:49.334Z,16.83
2019-04-14T02:32:43.477Z,16.53
2019-04-14T02:34:27.775Z,17.40
2019-04-14T02:37:38.670Z,17.50
2019-04-14T02:39:15.593Z,19.97
2019-04-14T02:40:57.113Z,17.47
2019-04-14T02:42:40.229Z,16.25
2019-04-14T02:45:46.741Z,17.03
2019-04-14T02:47:36.408Z,17.20
2019-04-14T02:50:30.398Z,18.85
2019-04-14T02:52:12.346Z,18.07
2019-04-14T02:53:59.171Z,18.73
2019-04-14T02:55:25.241Z,17.17
2019-04-14T02:57:09.675Z,15.43
2019-04-14T02:58:44.410Z,16.17
2019-04-14T03:00:24.085Z,16.57
2019-04-14T03:03:41.373Z,15.97
2019-04-14T03:05:09.610Z,15.83
2019-04-14T03:06:50.268Z,14.97
2019-04-14T03:10:01.196Z,13.58
2019-04-14T03:11:43.913Z,13.48
2019-04-14T03:15:03.536Z,12.25
2019-04-14T03:16:54.344Z,11.93
2019-04-14T03:18:48.399Z,13.33
2019-04-14T03:22:28.963Z,11.43
2019-04-14T03:24:13.121Z,12.60
2019-04-14T03:25:49.258Z,12.47
2019-04-14T03:29:08.194Z,10.60
2019-04-14T03:31:34.504Z,11.00
2019-04-14T03:33:13.784Z,11.90
2019-04-14T03:36:16.961Z,11.20
2019-04-14T03:40:45.826Z,9.95
2019-04-14T03:43:54.567Z,9.40
2019-04-14T03:45:43.333Z,10.87
2019-04-14T03:47:13.865Z,9.95
2019-04-14T03:53:37.723Z,6.60
2019-04-14T03:55:08.081Z,6.40
2019-04-14T03:56:53.606Z,6.40
2019-04-14T03:58:31.473Z,6.13
2019-04-14T04:00:07.586Z,6.17
2019-04-14T04:01:43.503Z,5.67
2019-04-14T04:03:19.632Z,5.47
2019-04-14T04:04:55.574Z,6.37
2019-04-14T04:06:32.049Z,5.60
2019-04-14T04:08:07.561Z,5.47
2019-04-14T04:09:47.592Z,5.57
2019-04-14T04:11:23.746Z,5.20
2019-04-14T04:12:59.731Z,5.10
2019-04-14T04:14:35.698Z,5.90
2019-04-14T04:16:13.830Z,5.33
2019-04-14T04:17:53.903Z,5.10
2019-04-14T04:19:31.578Z,5.30
2019-04-14T04:21:27.110Z,5.67
2019-04-14T04:23:05.637Z,5.40
2019-04-14T04:24:43.275Z,5.17
2019-04-14T04:26:23.417Z,5.73
2019-04-14T04:28:16.809Z,5.40
2019-04-14T04:29:57.035Z,5.23
2019-04-14T04:31:50.512Z,5.17
2019-04-14T04:33:41.452Z,4.67
2019-04-14T04:35:37.076Z,4.77
2019-04-14T04:37:20.352Z,5.50
2019-04-14T04:39:04.670Z,5.17
2019-04-14T04:40:41.754Z,4.63
2019-04-14T04:42:17.688Z,5.23
2019-04-14T04:43:53.874Z,5.20
2019-04-14T04:45:30.014Z,5.13
2019-04-14T04:47:05.820Z,4.67
2019-04-14T04:48:41.511Z,6.67
2019-04-14T04:50:17.202Z,5.72
2019-04-14T04:51:53.072Z,4.90
2019-04-14T04:53:28.841Z,5.33
2019-04-14T04:55:04.649Z,5.50
2019-04-14T04:56:40.554Z,5.10
2019-04-14T04:58:17.274Z,5.23
2019-04-14T04:59:53.930Z,5.50
2019-04-14T05:01:29.820Z,5.93
2019-04-14T05:03:05.766Z,4.90
2019-04-14T05:04:41.622Z,5.03
2019-04-14T05:06:57.090Z,5.10
2019-04-14T05:08:34.835Z,5.93
2019-04-14T05:10:15.274Z,5.40
2019-04-14T05:12:09.005Z,5.27
2019-04-14T05:13:46.820Z,5.50
2019-04-14T05:15:27.018Z,5.17
2019-04-14T05:17:03.831Z,5.20
2019-04-14T05:18:40.247Z,4.97
2019-04-14T05:20:15.965Z,5.53
2019-04-14T05:21:51.736Z,5.40
2019-04-14T05:23:27.794Z,5.33
2019-04-14T05:25:03.641Z,5.20
2019-04-14T05:26:39.477Z,5.90
2019-04-14T05:28:15.814Z,5.45
2019-04-14T05:29:51.597Z,5.40
2019-04-14T05:31:29.029Z,5.63
2019-04-14T05:33:05.187Z,5.43
2019-04-14T05:34:41.191Z,5.63
2019-04-14T05:36:17.115Z,4.97
2019-04-14T05:37:53.039Z,5.97
2019-04-14T05:39:28.681Z,5.13
2019-04-14T05:41:04.933Z,4.70
2019-04-14T05:42:40.744Z,5.27
2019-04-14T05:44:16.503Z,5.40
2019-04-14T05:45:52.431Z,5.20
2019-04-14T05:47:28.352Z,4.80
2019-04-14T05:49:04.407Z,5.50
2019-04-14T05:50:40.659Z,5.53
2019-04-14T05:52:17.039Z,5.03
2019-04-14T05:53:52.814Z,4.80
2019-04-14T05:55:28.510Z,4.50
2019-04-14T05:57:04.419Z,5.13
2019-04-14T05:58:40.410Z,5.00
2019-04-14T06:00:17.109Z,4.60
2019-04-14T06:01:52.813Z,4.40
2019-04-14T06:03:28.328Z,4.93
2019-04-14T06:05:03.923Z,5.00
2019-04-14T06:06:39.410Z,4.43
2019-04-14T06:08:14.534Z,5.00
2019-04-14T06:09:49.626Z,4.50
2019-04-14T06:11:24.753Z,4.40
2019-04-14T06:12:59.837Z,4.77
2019-04-14T06:14:34.930Z,4.40
2019-04-14T06:16:10.692Z,4.27
2019-04-14T06:17:46.216Z,4.00
2019-04-14T06:19:21.770Z,4.20
2019-04-14T06:20:57.315Z,4.10
2019-04-14T06:22:33.126Z,4.30
2019-04-14T06:24:09.709Z,4.50
2019-04-14T06:25:45.230Z,3.93
2019-04-14T06:27:20.755Z,4.20
2019-04-14T06:28:56.598Z,4.30
2019-04-14T06:30:49.904Z,4.33
2019-04-14T06:32:30.105Z,4.10
2019-04-14T06:34:10.078Z,4.50
2019-04-14T06:36:03.629Z,4.40
2019-04-14T06:37:59.721Z,4.20
2019-04-14T06:39:45.302Z,4.20
2019-04-14T06:41:20.545Z,4.43
2019-04-14T06:42:55.993Z,4.00
2019-04-14T06:44:31.561Z,4.23
2019-04-14T06:46:07.093Z,4.23
2019-04-14T06:47:42.627Z,4.07
2019-04-14T06:49:18.169Z,3.97
2019-04-14T06:50:53.712Z,3.90
2019-04-14T06:52:29.231Z,3.80
2019-04-14T06:54:04.917Z,3.97
2019-04-14T06:55:40.706Z,4.13
2019-04-14T06:57:16.369Z,3.83
2019-04-14T06:58:51.896Z,3.90
2019-04-14T07:00:27.671Z,3.97
2019-04-14T07:02:03.199Z,3.40
2019-04-14T07:03:38.715Z,3.70
2019-04-14T07:05:14.298Z,4.43
2019-04-14T07:06:51.399Z,5.17
2019-04-14T07:08:29.786Z,4.73
2019-04-14T07:10:05.687Z,5.43
2019-04-14T07:11:41.214Z,5.13
2019-04-14T07:13:19.297Z,5.97
2019-04-14T07:14:53.954Z,5.50
2019-04-14T07:16:29.590Z,6.17
2019-04-14T07:18:05.230Z,5.20
2019-04-14T07:19:40.977Z,6.67
2019-04-14T07:21:16.513Z,5.78
2019-04-14T07:22:54.955Z,5.30
2019-04-14T07:24:30.479Z,5.00
2019-04-14T07:26:06.006Z,4.80
2019-04-14T07:27:41.526Z,5.47
2019-04-14T07:29:17.041Z,5.08
2019-04-14T07:30:55.073Z,4.30
2019-04-14T07:32:45.028Z,4.93
2019-04-14T07:34:22.232Z,4.15
2019-04-14T07:36:15.418Z,4.80
2019-04-14T07:37:52.581Z,4.30
2019-04-14T07:39:41.831Z,5.10
2019-04-14T07:41:19.002Z,5.13
2019-04-14T07:42:59.063Z,4.60
2019-04-14T07:44:39.123Z,4.10
2019-04-14T07:46:32.164Z,4.40
2019-04-14T07:48:09.321Z,4.10
2019-04-14T07:50:13.923Z,5.40
2019-04-14T07:51:45.185Z,4.80
2019-04-14T07:53:25.318Z,4.47
2019-04-14T07:55:03.216Z,4.33
2019-04-14T07:56:41.363Z,4.37
2019-04-14T07:58:27.661Z,5.12
2019-04-14T08:00:23.414Z,4.43
2019-04-14T08:02:00.650Z,4.53
2019-04-14T08:03:54.166Z,4.67
2019-04-14T08:05:31.326Z,4.37
2019-04-14T08:07:06.886Z,5.13
2019-04-14T08:08:43.474Z,4.90
2019-04-14T08:10:19.965Z,4.97
2019-04-14T08:11:55.525Z,5.57
2019-04-14T08:13:31.044Z,4.67
2019-04-14T08:15:08.330Z,5.00
2019-04-14T08:16:43.849Z,5.30
2019-04-14T08:18:19.353Z,4.90
2019-04-14T08:19:55.850Z,4.80
2019-04-14T08:21:31.040Z,5.40
2019-04-14T08:23:06.491Z,5.90
2019-04-14T08:24:42.011Z,5.30
2019-04-14T08:26:17.528Z,5.13
2019-04-14T08:27:53.397Z,5.30
2019-04-14T08:29:28.960Z,5.37
2019-04-14T08:31:04.508Z,5.53
2019-04-14T08:32:40.027Z,4.93
2019-04-14T08:34:15.536Z,4.93
2019-04-14T08:35:51.065Z,5.20
2019-04-14T08:37:26.868Z,5.20
2019-04-14T08:39:02.366Z,5.37
2019-04-14T08:40:38.559Z,5.27
2019-04-14T08:42:24.938Z,5.60
2019-04-14T08:44:18.074Z,5.23
2019-04-14T08:45:59.337Z,6.03
2019-04-14T08:47:36.513Z,5.70
2019-04-14T08:49:13.942Z,6.07
2019-04-14T08:50:51.092Z,6.27
2019-04-14T08:52:28.256Z,5.57
2019-04-14T08:54:05.516Z,5.83
2019-04-14T08:55:59.226Z,5.57
2019-04-14T08:57:45.237Z,6.50
2019-04-14T08:59:28.139Z,6.47
2019-04-14T09:01:16.927Z,5.93
2019-04-14T09:02:54.117Z,6.03
2019-04-14T09:04:47.042Z,6.42
2019-04-14T09:06:39.471Z,6.85
2019-04-14T09:08:29.944Z,6.03
2019-04-14T09:10:25.942Z,6.17
2019-04-14T09:12:14.938Z,6.23
2019-04-14T09:13:40.375Z,5.80
2019-04-14T09:15:16.510Z,6.30
2019-04-14T09:16:52.025Z,6.23
2019-04-14T09:18:27.553Z,6.60
2019-04-14T09:20:03.239Z,6.90
2019-04-14T09:21:38.765Z,6.87
2019-04-14T09:23:14.314Z,7.20
2019-04-14T09:24:49.807Z,6.43
2019-04-14T09:26:25.493Z,7.00
2019-04-14T09:28:01.167Z,6.23
2019-04-14T09:29:36.654Z,7.20
2019-04-14T09:31:12.162Z,7.73
2019-04-14T09:32:48.112Z,6.83
2019-04-14T09:34:23.682Z,7.27
2019-04-14T09:36:00.263Z,7.33
2019-04-14T09:37:35.790Z,8.40
2019-04-14T09:39:11.298Z,7.97
2019-04-14T09:40:48.399Z,7.87
2019-04-14T09:42:23.926Z,8.27
2019-04-14T09:43:59.466Z,8.07
2019-04-14T09:45:34.997Z,8.03
2019-04-14T09:47:10.526Z,7.43
2019-04-14T09:48:46.041Z,7.50
2019-04-14T09:50:21.571Z,8.27
2019-04-14T09:51:57.087Z,8.37
2019-04-14T09:53:32.605Z,8.30
2019-04-14T09:55:08.135Z,8.00
2019-04-14T09:56:43.859Z,7.83
2019-04-14T09:58:19.376Z,8.50
2019-04-14T09:59:54.888Z,8.00
2019-04-14T10:01:30.479Z,8.67
2019-04-14T10:03:06.004Z,9.07
2019-04-14T10:04:41.180Z,10.10
2019-04-14T10:06:16.615Z,10.43
2019-04-14T10:07:52.135Z,9.53
2019-04-14T10:09:28.855Z,10.28
2019-04-14T10:11:04.109Z,10.10
2019-04-14T10:12:39.577Z,10.13
2019-04-14T10:14:15.089Z,10.33
2019-04-14T10:15:50.681Z,9.40
2019-04-14T10:17:26.303Z,10.40
2019-04-14T10:19:01.925Z,10.50
2019-04-14T10:20:37.451Z,10.68
2019-04-14T10:22:12.987Z,10.93
2019-04-14T10:23:49.767Z,10.80
2019-04-14T10:25:25.280Z,10.30
2019-04-14T10:27:00.875Z,10.07
2019-04-14T10:28:36.440Z,10.60
2019-04-14T10:30:12.128Z,10.53
2019-04-14T10:31:47.666Z,11.03
2019-04-14T10:33:23.203Z,10.13
2019-04-14T10:34:58.730Z,10.60
2019-04-14T10:36:34.251Z,11.00
2019-04-14T10:38:09.783Z,10.57
2019-04-14T10:39:45.406Z,11.68
2019-04-14T10:41:20.944Z,11.67
2019-04-14T10:42:57.688Z,10.20
2019-04-14T10:44:32.878Z,11.33
2019-04-14T10:46:08.340Z,11.57
2019-04-14T10:47:43.872Z,11.63
2019-04-14T10:49:19.423Z,11.37
2019-04-14T10:50:54.594Z,11.70
2019-04-14T10:52:30.058Z,13.00
2019-04-14T10:54:06.689Z,12.40
2019-04-14T10:55:42.205Z,13.95
2019-04-14T10:57:17.803Z,12.60
2019-04-14T10:58:53.362Z,13.27
2019-04-14T11:00:28.886Z,12.63
2019-04-14T11:02:04.479Z,12.47
2019-04-14T11:03:40.048Z,12.60
2019-04-14T11:05:15.608Z,11.77
2019-04-14T11:07:01.906Z,12.30
2019-04-14T11:08:37.553Z,12.03
2019-04-14T11:10:13.595Z,13.83
2019-04-14T11:11:49.134Z,14.57
2019-04-14T11:13:24.693Z,13.53
2019-04-14T11:15:00.645Z,14.50
2019-04-14T11:16:36.487Z,13.32
2019-04-14T11:18:12.033Z,16.50
2019-04-14T11:19:47.555Z,15.10
2019-04-14T11:21:23.031Z,16.43
2019-04-14T11:23:03.459Z,16.17
2019-04-14T11:24:35.819Z,16.07
2019-04-14T11:26:11.001Z,16.13
2019-04-14T11:27:46.507Z,17.03
2019-04-14T11:29:22.016Z,16.73
2019-04-14T11:30:58.864Z,18.63
2019-04-14T11:32:38.723Z,18.45
2019-04-14T11:34:15.564Z,18.63
2019-04-14T11:36:01.698Z,18.30
2019-04-14T11:37:41.748Z,20.40
2019-04-14T11:39:19.229Z,17.90
2019-04-14T11:40:56.398Z,19.10
2019-04-14T11:42:31.945Z,18.73
2019-04-14T11:44:07.496Z,19.67
2019-04-14T11:45:43.650Z,23.52
2019-04-14T11:47:20.159Z,21.30
2019-04-14T11:48:55.701Z,21.97
2019-04-14T11:50:31.246Z,22.67
2019-04-14T11:52:06.810Z,23.53
2019-04-14T11:53:41.967Z,22.60
2019-04-14T11:55:17.450Z,22.93
2019-04-14T11:56:54.043Z,24.90
2019-04-14T11:58:29.473Z,23.47
2019-04-14T12:00:14.355Z,24.97
2019-04-14T12:01:57.038Z,22.30
2019-04-14T12:03:37.162Z,22.57
2019-04-14T12:05:14.336Z,23.90
2019-04-14T12:07:07.918Z,25.37
2019-04-14T12:08:46.060Z,23.07
2019-04-14T12:10:22.373Z,26.40
2019-04-14T12:11:57.905Z,25.43
2019-04-14T12:13:34.084Z,23.70
2019-04-14T12:15:16.107Z,25.00
2019-04-14T12:16:47.235Z,26.27
2019-04-14T12:18:22.819Z,25.70
2019-04-14T12:19:58.330Z,24.73
2019-04-14T12:21:34.606Z,26.42
2019-04-14T12:23:10.406Z,26.53
2019-04-14T12:24:45.971Z,27.75
2019-04-14T12:26:21.545Z,28.40
2019-04-14T12:27:57.859Z,26.15
2019-04-14T12:29:34.696Z,26.90
2019-04-14T12:31:10.919Z,25.90
2019-04-14T12:32:46.491Z,26.02
2019-04-14T12:34:21.668Z,27.33
2019-04-14T12:35:56.874Z,27.47
2019-04-14T12:37:32.602Z,29.63
2019-04-14T12:39:15.748Z,27.37
2019-04-14T12:40:52.427Z,28.10
2019-04-14T12:42:31.764Z,27.40
2019-04-14T12:44:24.903Z,25.33
2019-04-14T12:46:17.973Z,26.67
2019-04-14T12:48:11.226Z,28.50
2019-04-14T12:49:48.264Z,28.20
2019-04-14T12:51:37.475Z,27.70
2019-04-14T12:53:13.001Z,24.93
2019-04-14T12:54:48.187Z,26.60
2019-04-14T12:56:28.589Z,26.20
2019-04-14T12:58:05.732Z,26.03
2019-04-14T12:59:40.944Z,25.68
2019-04-14T13:01:18.200Z,26.57
2019-04-14T13:02:54.399Z,26.20
2019-04-14T13:04:30.951Z,26.87
2019-04-14T13:06:06.494Z,24.20
2019-04-14T13:07:42.312Z,26.37
2019-04-14T13:09:18.926Z,25.00
2019-04-14T13:10:54.505Z,24.60
2019-04-14T13:12:30.911Z,25.97
2019-04-14T13:14:06.450Z,26.57
2019-04-14T13:15:42.075Z,25.68
2019-04-14T13:17:17.604Z,26.00
2019-04-14T13:18:53.441Z,24.77
2019-04-14T13:20:28.976Z,23.50
2019-04-14T13:22:04.542Z,25.73
2019-04-14T13:23:40.105Z,26.25
2019-04-14T13:25:15.633Z,24.45
2019-04-14T13:26:51.570Z,25.20
2019-04-14T13:28:27.119Z,23.63
2019-04-14T13:30:02.722Z,25.83
2019-04-14T13:31:38.574Z,24.57
2019-04-14T13:33:14.344Z,25.65
2019-04-14T13:34:49.890Z,23.73
2019-04-14T13:36:25.722Z,24.07
2019-04-14T13:38:01.474Z,22.97
2019-04-14T13:39:37.010Z,24.80
2019-04-14T13:41:12.559Z,25.55
2019-04-14T13:42:48.118Z,24.32
2019-04-14T13:44:23.756Z,23.87
2019-04-14T13:45:59.957Z,23.97
2019-04-14T13:47:35.672Z,22.83
2019-04-14T13:49:11.211Z,25.32
2019-04-14T13:50:46.763Z,24.18
2019-04-14T13:52:22.284Z,24.03
2019-04-14T13:53:58.220Z,24.27
2019-04-14T13:55:33.762Z,22.20
2019-04-14T13:57:09.521Z,24.17
2019-04-14T13:58:45.051Z,24.40
2019-04-14T14:00:21.185Z,25.63
2019-04-14T14:01:56.791Z,24.30
2019-04-14T14:03:32.340Z,23.27
2019-04-14T14:05:08.221Z,23.45
2019-04-14T14:06:44.391Z,23.87
2019-04-14T14:08:19.862Z,25.03
2019-04-14T14:09:57.113Z,23.47
2019-04-14T14:11:34.448Z,22.10
2019-04-14T14:13:11.625Z,22.67
2019-04-14T14:14:51.142Z,21.95
2019-04-14T14:16:28.258Z,22.43
2019-04-14T14:18:14.811Z,23.10
2019-04-14T14:19:51.974Z,22.20
2019-04-14T14:21:31.766Z,21.80
2019-04-14T14:23:11.540Z,24.43
2019-04-14T14:24:57.109Z,22.82
2019-04-14T14:26:34.466Z,22.23
2019-04-14T14:28:10.085Z,23.57
2019-04-14T14:29:45.299Z,22.48
2019-04-14T14:31:21.869Z,22.83
2019-04-14T14:32:57.116Z,23.53
2019-04-14T14:34:32.629Z,24.70
2019-04-14T14:36:07.814Z,25.50
2019-04-14T14:37:42.952Z,23.30
2019-04-14T14:39:21.438Z,23.17
2019-04-14T14:40:58.380Z,22.50
2019-04-14T14:42:33.930Z,21.47
2019-04-14T14:44:09.488Z,22.07
2019-04-14T14:45:49.190Z,22.05
2019-04-14T14:47:26.025Z,21.90
2019-04-14T14:49:03.127Z,23.67
2019-04-14T14:50:43.385Z,22.15
2019-04-14T14:52:20.274Z,21.77
2019-04-14T14:53:56.006Z,20.63
2019-04-14T14:55:48.483Z,21.07
2019-04-14T14:57:25.624Z,22.50
2019-04-14T14:59:01.466Z,22.80
2019-04-14T15:00:37.309Z,22.00
2019-04-14T15:02:12.933Z,22.33
2019-04-14T15:03:48.140Z,22.13
2019-04-14T15:05:23.535Z,21.00
2019-04-14T15:06:59.023Z,21.87
2019-04-14T15:08:34.579Z,22.03
2019-04-14T15:10:09.837Z,22.13
2019-04-14T15:11:45.312Z,21.20
2019-04-14T15:13:20.839Z,20.60
2019-04-14T15:14:56.381Z,19.77
2019-04-14T15:16:31.841Z,19.40
2019-04-14T15:18:07.405Z,19.60
2019-04-14T15:19:42.948Z,20.07
2019-04-14T15:21:19.533Z,19.07
2019-04-14T15:22:55.256Z,19.45
2019-04-14T15:24:30.430Z,17.63
2019-04-14T15:26:06.049Z,16.80
2019-04-14T15:27:41.244Z,15.97
2019-04-14T15:29:17.062Z,16.53
2019-04-14T15:30:52.764Z,16.35
2019-04-14T15:32:27.965Z,16.50
2019-04-14T15:34:03.448Z,15.30
2019-04-14T15:35:39.622Z,16.00
2019-04-14T15:37:14.899Z,14.53
2019-04-14T15:38:50.375Z,16.40
2019-04-14T15:40:25.918Z,15.15
2019-04-14T15:42:01.102Z,16.13
2019-04-14T15:43:36.229Z,14.50
2019-04-14T15:45:13.946Z,14.20
2019-04-14T15:46:49.888Z,14.83
2019-04-14T15:48:25.463Z,15.03
2019-04-14T15:50:01.005Z,15.10
2019-04-14T15:51:37.505Z,15.83
2019-04-14T15:53:12.689Z,15.33
2019-04-14T15:54:47.810Z,13.20
2019-04-14T15:56:27.790Z,14.90
2019-04-14T15:58:17.960Z,14.60
2019-04-14T15:59:57.439Z,13.30
2019-04-14T16:01:36.849Z,13.67
2019-04-14T16:03:23.848Z,14.57
2019-04-14T16:05:12.465Z,14.33
2019-04-14T16:07:04.703Z,15.28
2019-04-14T16:08:51.455Z,13.60
2019-04-14T16:10:28.568Z,13.97
2019-04-14T16:12:08.483Z,16.53
2019-04-14T16:14:03.254Z,14.27
2019-04-14T16:15:49.097Z,13.67
2019-04-14T16:17:34.719Z,13.30
2019-04-14T16:19:13.146Z,14.87
2019-04-14T16:20:48.321Z,13.73
2019-04-14T16:22:24.764Z,13.30
2019-04-14T16:23:59.987Z,14.20
2019-04-14T16:25:55.086Z,14.37
2019-04-14T16:27:41.141Z,14.33
2019-04-14T16:29:18.024Z,16.20
2019-04-14T16:31:12.554Z,13.50
2019-04-14T16:33:05.400Z,14.28
2019-04-14T16:34:43.063Z,14.30
2019-04-14T16:36:18.929Z,14.17
2019-04-14T16:37:54.044Z,15.20
2019-04-14T16:39:29.206Z,14.67
2019-04-14T16:41:04.404Z,14.20
2019-04-14T16:42:39.505Z,14.23
2019-04-14T16:44:14.969Z,14.23
2019-04-14T16:45:50.584Z,16.82
2019-04-14T16:47:25.769Z,15.43
2019-04-14T16:49:01.502Z,14.80
2019-04-14T16:50:37.113Z,14.83
2019-04-14T16:52:13.940Z,14.60
2019-04-14T16:53:49.052Z,15.47
2019-04-14T16:55:31.275Z,14.87
2019-04-14T16:57:23.643Z,15.17
2019-04-14T16:59:00.753Z,16.00
2019-04-14T17:00:37.653Z,14.10
2019-04-14T17:02:13.108Z,14.63
2019-04-14T17:03:48.296Z,15.40
2019-04-14T17:05:23.419Z,15.40
2019-04-14T17:06:58.521Z,15.90
2019-04-14T17:08:33.626Z,16.53
2019-04-14T17:10:08.920Z,15.33
2019-04-14T17:11:44.219Z,14.80
2019-04-14T17:13:19.746Z,14.18
2019-04-14T17:14:59.372Z,13.60
2019-04-14T17:16:51.834Z,14.13
2019-04-14T17:18:32.754Z,14.03
2019-04-14T17:20:09.646Z,14.33
2019-04-14T17:21:46.446Z,13.10
2019-04-14T17:23:26.648Z,12.60
2019-04-14T17:25:03.760Z,13.13
2019-04-14T17:26:45.890Z,15.07
2019-04-14T17:28:30.086Z,16.63
2019-04-14T17:30:14.750Z,14.55
2019-04-14T17:31:51.498Z,14.00
2019-04-14T17:33:34.829Z,16.10
2019-04-14T17:35:17.967Z,15.63
2019-04-14T17:36:57.385Z,14.20
2019-04-14T17:38:34.504Z,16.20
2019-04-14T17:40:24.515Z,16.97
2019-04-14T17:42:11.014Z,19.32
2019-04-14T17:43:48.193Z,18.33
2019-04-14T17:45:34.469Z,18.87
2019-04-14T17:47:14.040Z,18.30
2019-04-14T17:49:07.082Z,16.50
2019-04-14T17:50:46.855Z,16.33
2019-04-14T17:52:32.713Z,15.27
2019-04-14T17:54:10.526Z,15.33
2019-04-14T17:56:02.865Z,15.43
2019-04-14T17:57:56.114Z,15.30
2019-04-14T17:59:47.428Z,15.43
2019-04-14T18:01:42.349Z,15.43
2019-04-14T18:03:24.099Z,14.97
2019-04-14T18:05:00.946Z,16.10
2019-04-14T18:06:38.128Z,15.60
2019-04-14T18:08:24.388Z,17.05
2019-04-14T18:10:01.160Z,18.00
2019-04-14T18:11:37.914Z,18.43
2019-04-14T18:13:15.695Z,16.97
2019-04-14T18:14:55.272Z,16.50
2019-04-14T18:16:48.151Z,15.03
2019-04-14T18:18:40.919Z,15.80
2019-04-14T18:20:21.054Z,15.63
2019-04-14T18:21:56.598Z,15.38
2019-04-14T18:23:31.841Z,15.20
2019-04-14T18:25:09.086Z,15.37
2019-04-14T18:26:45.040Z,15.70
2019-04-14T18:28:22.238Z,16.17
2019-04-14T18:29:59.091Z,16.25
2019-04-14T18:31:36.185Z,15.33
2019-04-14T18:33:16.082Z,16.60
2019-04-14T18:35:01.963Z,15.93
2019-04-14T18:36:39.201Z,16.57
2019-04-14T18:38:28.157Z,17.90
2019-04-14T18:40:07.960Z,15.78
2019-04-14T18:42:01.056Z,16.77
2019-04-14T18:43:52.938Z,18.67
2019-04-14T18:45:48.192Z,15.83
2019-04-14T18:47:25.417Z,17.62
2019-04-14T18:49:05.289Z,18.82
2019-04-14T18:50:57.185Z,17.97
2019-04-14T18:52:52.210Z,18.33
2019-04-14T18:54:27.490Z,19.87
2019-04-14T18:56:07.142Z,17.62
2019-04-14T18:57:43.899Z,19.73
2019-04-14T18:59:30.067Z,19.20
2019-04-14T19:01:12.908Z,19.48
2019-04-14T19:02:49.370Z,18.77
2019-04-14T19:04:24.471Z,18.27
2019-04-14T19:05:59.934Z,17.83
2019-04-14T19:07:36.072Z,19.20
2019-04-14T19:09:11.249Z,18.65
2019-04-14T19:10:48.066Z,19.53
2019-04-14T19:12:39.749Z,17.87
2019-04-14T19:14:28.425Z,19.37
2019-04-14T19:16:07.984Z,19.67
2019-04-14T19:17:44.811Z,18.43
2019-04-14T19:19:21.926Z,19.37
2019-04-14T19:20:58.756Z,20.60
2019-04-14T19:22:34.246Z,19.67
2019-04-14T19:24:09.402Z,19.53
2019-04-14T19:25:44.878Z,20.13
2019-04-14T19:27:20.139Z,18.93
2019-04-14T19:28:55.596Z,18.05
2019-04-14T19:30:31.130Z,18.00
2019-04-14T19:32:06.669Z,20.65
2019-04-14T19:33:42.215Z,20.97
2019-04-14T19:35:17.750Z,20.87
2019-04-14T19:36:53.401Z,21.90
2019-04-14T19:38:28.919Z,21.67
2019-04-14T19:40:06.486Z,21.25
2019-04-14T19:41:41.668Z,22.43
2019-04-14T19:43:23.633Z,19.53
2019-04-14T19:44:54.012Z,19.23
2019-04-14T19:46:29.124Z,21.07
2019-04-14T19:48:04.506Z,20.30
2019-04-14T19:49:39.609Z,21.10
2019-04-14T19:51:15.147Z,21.90
2019-04-14T19:52:50.710Z,22.77
2019-04-14T19:54:26.242Z,23.10
2019-04-14T19:56:01.425Z,21.85
2019-04-14T19:57:36.889Z,21.47
2019-04-14T19:59:12.373Z,19.57
2019-04-14T20:00:47.836Z,21.67
2019-04-14T20:02:23.030Z,22.43
2019-04-14T20:03:58.410Z,20.93
2019-04-14T20:05:34.199Z,20.67
2019-04-14T20:07:09.823Z,20.40
2019-04-14T20:08:45.441Z,22.33
2019-04-14T20:10:21.019Z,21.40
2019-04-14T20:11:56.549Z,21.00
2019-04-14T20:13:33.380Z,20.13
2019-04-14T20:15:10.882Z,21.12
2019-04-14T20:17:05.983Z,21.47
2019-04-14T20:19:09.581Z,20.37
2019-04-14T20:20:53.955Z,20.80
2019-04-14T20:22:30.779Z,21.63
2019-04-14T20:24:14.034Z,21.50
2019-04-14T20:25:52.080Z,19.40
2019-04-14T20:27:28.849Z,21.37
2019-04-14T20:29:08.914Z,21.57
2019-04-14T20:30:46.352Z,21.30
2019-04-14T20:32:23.601Z,20.17
2019-04-14T20:33:59.144Z,22.10
2019-04-14T20:35:35.773Z,22.70
2019-04-14T20:37:11.394Z,21.87
2019-04-14T20:38:46.936Z,22.77
2019-04-14T20:40:22.471Z,23.38
2019-04-14T20:41:58.038Z,23.97
2019-04-14T20:43:33.848Z,24.67
2019-04-14T20:45:12.269Z,24.67
2019-04-14T20:46:47.815Z,25.75
2019-04-14T20:48:23.338Z,25.00
2019-04-14T20:49:58.866Z,24.40
2019-04-14T20:51:34.544Z,24.90
2019-04-14T20:53:10.093Z,26.70
2019-04-14T20:54:45.634Z,25.97
2019-04-14T20:56:21.506Z,26.07
2019-04-14T20:57:57.043Z,25.73
2019-04-14T20:59:32.598Z,26.70
2019-04-14T21:01:09.807Z,27.30
2019-04-14T21:02:45.371Z,25.62
2019-04-14T21:04:25.312Z,27.52
2019-04-14T21:06:02.479Z,25.37
2019-04-14T21:07:55.705Z,26.20
2019-04-14T21:09:32.884Z,25.73
2019-04-14T21:11:10.101Z,25.13
2019-04-14T21:12:46.947Z,25.77
2019-04-14T21:14:24.056Z,25.90
2019-04-14T21:16:12.435Z,26.50
2019-04-14T21:17:42.898Z,26.03
2019-04-14T21:19:34.563Z,26.87
2019-04-14T21:21:23.504Z,25.00
2019-04-14T21:23:00.583Z,24.60
2019-04-14T21:24:50.099Z,25.30
2019-04-14T21:26:29.609Z,23.93
2019-04-14T21:28:10.498Z,23.83
2019-04-14T21:30:03.872Z,25.50
2019-04-14T21:31:43.378Z,24.57
2019-04-14T21:33:23.094Z,23.93
2019-04-14T21:34:59.944Z,25.43
2019-04-14T21:36:53.167Z,24.47
2019-04-14T21:38:46.473Z,25.80
2019-04-14T21:40:32.598Z,25.80
2019-04-14T21:42:09.101Z,24.80
2019-04-14T21:43:44.652Z,24.10
2019-04-14T21:45:20.208Z,23.10